sensor_id;sensor_type;location;lat;lon;timestamp;P1;durP1;ratioP1;P2;durP2;ratioP2
50309;SDS011;36207;51.850;21.698;2023-06-04T00:01:56;14.20;;;6.20;;
50309;SDS011;36207;51.850;21.698;2023-06-04T00:04:22;15.60;;;6.60;;
50309;SDS011;36207;51.850;21.698;2023-06-04T00:06:48;16.30;;;7.00;;
50309;SDS011;36207;51.850;21.698;2023-06-04T00:09:15;17.30;;;7.60;;
50309;SDS011;36207;51.850;21.698;2023-06-04T00:11:41;24.00;;;8.50;;
50309;SDS011;36207;51.850;21.698;2023-06-04T00:14:07;18.60;;;7.80;;
50309;SDS011;36207;51.850;21.698;2023-06-04T00:16:33;21.60;;;8.60;;
50309;SDS011;36207;51.850;21.698;2023-06-04T00:19:01;19.50;;;8.80;;
50309;SDS011;36207;51.850;21.698;2023-06-04T00:21:28;15.90;;;7.90;;
50309;SDS011;36207;51.850;21.698;2023-06-04T00:23:54;16.80;;;7.10;;
50309;SDS011;36207;51.850;21.698;2023-06-04T00:26:20;15.70;;;7.20;;
50309;SDS011;36207;51.850;21.698;2023-06-04T00:28:47;11.40;;;6.20;;
50309;SDS011;36207;51.850;21.698;2023-06-04T00:31:13;13.20;;;5.80;;
50309;SDS011;36207;51.850;21.698;2023-06-04T00:33:39;10.40;;;5.40;;
50309;SDS011;36207;51.850;21.698;2023-06-04T00:36:05;11.50;;;5.50;;
50309;SDS011;36207;51.850;21.698;2023-06-04T00:38:31;11.70;;;5.50;;
50309;SDS011;36207;51.850;21.698;2023-06-04T00:40:58;9.50;;;5.10;;
50309;SDS011;36207;51.850;21.698;2023-06-04T00:43:24;11.90;;;5.40;;
50309;SDS011;36207;51.850;21.698;2023-06-04T00:45:53;11.20;;;5.20;;
50309;SDS011;36207;51.850;21.698;2023-06-04T00:48:19;9.20;;;4.70;;
50309;SDS011;36207;51.850;21.698;2023-06-04T00:50:47;9.60;;;4.90;;
50309;SDS011;36207;51.850;21.698;2023-06-04T00:53:14;8.10;;;4.70;;
50309;SDS011;36207;51.850;21.698;2023-06-04T00:55:40;8.70;;;4.80;;
50309;SDS011;36207;51.850;21.698;2023-06-04T00:58:06;9.30;;;5.30;;
50309;SDS011;36207;51.850;21.698;2023-06-04T01:00:35;11.10;;;4.70;;
50309;SDS011;36207;51.850;21.698;2023-06-04T01:03:07;8.60;;;4.60;;
50309;SDS011;36207;51.850;21.698;2023-06-04T01:05:55;10.00;;;4.80;;
50309;SDS011;36207;51.850;21.698;2023-06-04T01:08:28;10.60;;;5.20;;
50309;SDS011;36207;51.850;21.698;2023-06-04T01:10:55;9.30;;;4.70;;
50309;SDS011;36207;51.850;21.698;2023-06-04T01:13:22;8.00;;;4.60;;
50309;SDS011;36207;51.850;21.698;2023-06-04T01:15:48;8.10;;;4.80;;
50309;SDS011;36207;51.850;21.698;2023-06-04T01:18:15;8.50;;;4.70;;
50309;SDS011;36207;51.850;21.698;2023-06-04T01:26:30;8.50;;;4.70;;
50309;SDS011;36207;51.850;21.698;2023-06-04T01:28:59;11.60;;;4.90;;
50309;SDS011;36207;51.850;21.698;2023-06-04T01:31:27;9.10;;;4.30;;
50309;SDS011;36207;51.850;21.698;2023-06-04T01:33:58;8.40;;;4.60;;
50309;SDS011;36207;51.850;21.698;2023-06-04T01:36:24;9.20;;;5.20;;
50309;SDS011;36207;51.850;21.698;2023-06-04T01:38:51;10.70;;;4.70;;
50309;SDS011;36207;51.850;21.698;2023-06-04T01:41:17;10.00;;;4.90;;
50309;SDS011;36207;51.850;21.698;2023-06-04T01:43:43;7.90;;;4.40;;
50309;SDS011;36207;51.850;21.698;2023-06-04T01:46:09;9.90;;;4.70;;
50309;SDS011;36207;51.850;21.698;2023-06-04T01:48:35;8.10;;;4.60;;
50309;SDS011;36207;51.850;21.698;2023-06-04T01:51:01;9.20;;;4.70;;
50309;SDS011;36207;51.850;21.698;2023-06-04T01:53:28;8.60;;;4.50;;
50309;SDS011;36207;51.850;21.698;2023-06-04T01:55:55;7.90;;;4.40;;
50309;SDS011;36207;51.850;21.698;2023-06-04T01:58:23;8.00;;;4.30;;
50309;SDS011;36207;51.850;21.698;2023-06-04T02:00:52;10.70;;;4.70;;
50309;SDS011;36207;51.850;21.698;2023-06-04T02:03:20;9.40;;;4.50;;
50309;SDS011;36207;51.850;21.698;2023-06-04T02:05:48;9.90;;;4.50;;
50309;SDS011;36207;51.850;21.698;2023-06-04T02:08:15;8.60;;;4.40;;
50309;SDS011;36207;51.850;21.698;2023-06-04T02:10:51;8.00;;;4.30;;
50309;SDS011;36207;51.850;21.698;2023-06-04T02:13:17;7.50;;;4.40;;
50309;SDS011;36207;51.850;21.698;2023-06-04T02:15:43;8.90;;;4.90;;
50309;SDS011;36207;51.850;21.698;2023-06-04T02:18:16;10.50;;;4.60;;
50309;SDS011;36207;51.850;21.698;2023-06-04T02:20:44;9.80;;;4.70;;
50309;SDS011;36207;51.850;21.698;2023-06-04T02:23:11;9.10;;;4.40;;
50309;SDS011;36207;51.850;21.698;2023-06-04T02:25:37;8.50;;;4.10;;
50309;SDS011;36207;51.850;21.698;2023-06-04T02:28:03;8.30;;;4.50;;
50309;SDS011;36207;51.850;21.698;2023-06-04T02:30:29;12.30;;;4.70;;
50309;SDS011;36207;51.850;21.698;2023-06-04T02:32:55;11.10;;;4.60;;
50309;SDS011;36207;51.850;21.698;2023-06-04T02:35:22;7.60;;;4.40;;
50309;SDS011;36207;51.850;21.698;2023-06-04T02:37:49;7.70;;;4.10;;
50309;SDS011;36207;51.850;21.698;2023-06-04T02:40:16;12.00;;;4.50;;
50309;SDS011;36207;51.850;21.698;2023-06-04T02:42:42;10.10;;;4.20;;
50309;SDS011;36207;51.850;21.698;2023-06-04T02:45:09;8.30;;;4.10;;
50309;SDS011;36207;51.850;21.698;2023-06-04T02:47:36;8.00;;;4.10;;
50309;SDS011;36207;51.850;21.698;2023-06-04T02:50:01;9.00;;;4.40;;
50309;SDS011;36207;51.850;21.698;2023-06-04T02:52:29;8.30;;;4.10;;
50309;SDS011;36207;51.850;21.698;2023-06-04T02:54:56;9.00;;;4.40;;
50309;SDS011;36207;51.850;21.698;2023-06-04T02:57:22;8.70;;;4.20;;
50309;SDS011;36207;51.850;21.698;2023-06-04T02:59:48;7.40;;;4.20;;
50309;SDS011;36207;51.850;21.698;2023-06-04T03:02:14;7.70;;;4.20;;
50309;SDS011;36207;51.850;21.698;2023-06-04T03:04:41;9.30;;;4.40;;
50309;SDS011;36207;51.850;21.698;2023-06-04T03:07:08;7.00;;;4.30;;
50309;SDS011;36207;51.850;21.698;2023-06-04T03:09:37;7.50;;;4.20;;
50309;SDS011;36207;51.850;21.698;2023-06-04T03:12:03;6.80;;;4.20;;
50309;SDS011;36207;51.850;21.698;2023-06-04T03:14:30;6.10;;;4.00;;
50309;SDS011;36207;51.850;21.698;2023-06-04T03:16:58;9.20;;;4.60;;
50309;SDS011;36207;51.850;21.698;2023-06-04T03:19:27;7.60;;;4.40;;
50309;SDS011;36207;51.850;21.698;2023-06-04T03:21:53;8.50;;;4.40;;
50309;SDS011;36207;51.850;21.698;2023-06-04T03:24:19;7.30;;;4.10;;
50309;SDS011;36207;51.850;21.698;2023-06-04T03:26:45;6.10;;;3.80;;
50309;SDS011;36207;51.850;21.698;2023-06-04T03:29:11;8.30;;;4.40;;
50309;SDS011;36207;51.850;21.698;2023-06-04T03:31:37;7.50;;;4.10;;
50309;SDS011;36207;51.850;21.698;2023-06-04T03:34:03;7.40;;;4.40;;
50309;SDS011;36207;51.850;21.698;2023-06-04T03:36:29;8.40;;;4.60;;
50309;SDS011;36207;51.850;21.698;2023-06-04T03:38:57;11.70;;;4.50;;
50309;SDS011;36207;51.850;21.698;2023-06-04T03:41:24;8.10;;;4.40;;
50309;SDS011;36207;51.850;21.698;2023-06-04T03:43:51;8.10;;;4.60;;
50309;SDS011;36207;51.850;21.698;2023-06-04T03:46:18;9.80;;;4.50;;
50309;SDS011;36207;51.850;21.698;2023-06-04T03:48:43;6.30;;;3.90;;
50309;SDS011;36207;51.850;21.698;2023-06-04T03:51:11;7.20;;;4.20;;
50309;SDS011;36207;51.850;21.698;2023-06-04T03:53:37;8.10;;;4.50;;
50309;SDS011;36207;51.850;21.698;2023-06-04T03:56:03;10.80;;;4.30;;
50309;SDS011;36207;51.850;21.698;2023-06-04T03:58:29;7.90;;;4.40;;
50309;SDS011;36207;51.850;21.698;2023-06-04T04:00:55;7.90;;;4.20;;
50309;SDS011;36207;51.850;21.698;2023-06-04T04:03:21;8.10;;;4.40;;
50309;SDS011;36207;51.850;21.698;2023-06-04T04:05:47;8.40;;;4.50;;
50309;SDS011;36207;51.850;21.698;2023-06-04T04:08:13;8.40;;;4.40;;
50309;SDS011;36207;51.850;21.698;2023-06-04T04:10:41;10.60;;;4.30;;
50309;SDS011;36207;51.850;21.698;2023-06-04T04:13:07;9.60;;;4.60;;
50309;SDS011;36207;51.850;21.698;2023-06-04T04:15:33;7.80;;;4.20;;
50309;SDS011;36207;51.850;21.698;2023-06-04T04:17:59;8.30;;;4.50;;
50309;SDS011;36207;51.850;21.698;2023-06-04T04:20:25;7.80;;;4.30;;
50309;SDS011;36207;51.850;21.698;2023-06-04T04:22:51;8.40;;;4.20;;
50309;SDS011;36207;51.850;21.698;2023-06-04T04:25:18;9.60;;;4.50;;
50309;SDS011;36207;51.850;21.698;2023-06-04T04:27:44;7.80;;;4.30;;
50309;SDS011;36207;51.850;21.698;2023-06-04T04:30:11;9.00;;;4.60;;
50309;SDS011;36207;51.850;21.698;2023-06-04T04:32:38;7.50;;;3.70;;
50309;SDS011;36207;51.850;21.698;2023-06-04T04:35:14;7.70;;;4.50;;
50309;SDS011;36207;51.850;21.698;2023-06-04T04:37:44;6.80;;;4.20;;
50309;SDS011;36207;51.850;21.698;2023-06-04T04:40:10;6.80;;;3.90;;
50309;SDS011;36207;51.850;21.698;2023-06-04T04:42:38;7.20;;;4.00;;
50309;SDS011;36207;51.850;21.698;2023-06-04T04:45:04;9.30;;;4.10;;
50309;SDS011;36207;51.850;21.698;2023-06-04T04:47:30;9.80;;;4.10;;
50309;SDS011;36207;51.850;21.698;2023-06-04T04:49:56;7.30;;;3.70;;
50309;SDS011;36207;51.850;21.698;2023-06-04T04:52:22;5.10;;;3.10;;
50309;SDS011;36207;51.850;21.698;2023-06-04T04:54:48;5.80;;;3.10;;
50309;SDS011;36207;51.850;21.698;2023-06-04T04:57:14;7.20;;;3.00;;
50309;SDS011;36207;51.850;21.698;2023-06-04T04:59:39;4.70;;;2.80;;
50309;SDS011;36207;51.850;21.698;2023-06-04T05:02:05;5.80;;;2.70;;
50309;SDS011;36207;51.850;21.698;2023-06-04T05:04:31;6.60;;;2.80;;
50309;SDS011;36207;51.850;21.698;2023-06-04T05:06:57;8.00;;;2.80;;
50309;SDS011;36207;51.850;21.698;2023-06-04T05:09:23;5.40;;;3.10;;
50309;SDS011;36207;51.850;21.698;2023-06-04T05:11:49;5.40;;;2.90;;
50309;SDS011;36207;51.850;21.698;2023-06-04T05:14:15;5.90;;;2.40;;
50309;SDS011;36207;51.850;21.698;2023-06-04T05:16:42;4.50;;;3.10;;
50309;SDS011;36207;51.850;21.698;2023-06-04T05:19:10;5.10;;;2.70;;
50309;SDS011;36207;51.850;21.698;2023-06-04T05:21:36;8.20;;;3.10;;
50309;SDS011;36207;51.850;21.698;2023-06-04T05:24:02;7.50;;;2.80;;
50309;SDS011;36207;51.850;21.698;2023-06-04T05:26:28;5.70;;;3.00;;
50309;SDS011;36207;51.850;21.698;2023-06-04T05:28:55;7.10;;;3.10;;
50309;SDS011;36207;51.850;21.698;2023-06-04T05:31:21;5.30;;;2.60;;
50309;SDS011;36207;51.850;21.698;2023-06-04T05:33:47;7.00;;;3.10;;
50309;SDS011;36207;51.850;21.698;2023-06-04T05:36:13;5.50;;;3.00;;
50309;SDS011;36207;51.850;21.698;2023-06-04T05:38:40;7.70;;;2.90;;
50309;SDS011;36207;51.850;21.698;2023-06-04T05:41:06;7.70;;;2.80;;
50309;SDS011;36207;51.850;21.698;2023-06-04T05:43:32;6.40;;;3.20;;
50309;SDS011;36207;51.850;21.698;2023-06-04T05:45:57;4.50;;;3.00;;
50309;SDS011;36207;51.850;21.698;2023-06-04T05:48:23;6.00;;;3.00;;
50309;SDS011;36207;51.850;21.698;2023-06-04T05:50:50;4.40;;;2.60;;
50309;SDS011;36207;51.850;21.698;2023-06-04T05:53:16;6.30;;;3.20;;
50309;SDS011;36207;51.850;21.698;2023-06-04T05:55:42;6.10;;;3.30;;
50309;SDS011;36207;51.850;21.698;2023-06-04T05:58:08;5.80;;;3.20;;
50309;SDS011;36207;51.850;21.698;2023-06-04T06:00:34;6.30;;;3.10;;
50309;SDS011;36207;51.850;21.698;2023-06-04T06:03:00;6.30;;;3.20;;
50309;SDS011;36207;51.850;21.698;2023-06-04T06:05:27;4.90;;;2.80;;
50309;SDS011;36207;51.850;21.698;2023-06-04T06:07:53;3.60;;;2.60;;
50309;SDS011;36207;51.850;21.698;2023-06-04T06:10:19;7.10;;;2.70;;
50309;SDS011;36207;51.850;21.698;2023-06-04T06:12:45;4.50;;;2.80;;
50309;SDS011;36207;51.850;21.698;2023-06-04T06:15:11;5.40;;;2.40;;
50309;SDS011;36207;51.850;21.698;2023-06-04T06:17:38;4.30;;;2.80;;
50309;SDS011;36207;51.850;21.698;2023-06-04T06:20:04;6.00;;;2.80;;
50309;SDS011;36207;51.850;21.698;2023-06-04T06:22:34;4.80;;;2.40;;
50309;SDS011;36207;51.850;21.698;2023-06-04T06:25:01;7.00;;;2.60;;
50309;SDS011;36207;51.850;21.698;2023-06-04T06:27:29;5.60;;;2.30;;
50309;SDS011;36207;51.850;21.698;2023-06-04T06:29:55;5.70;;;2.40;;
50309;SDS011;36207;51.850;21.698;2023-06-04T06:32:21;3.00;;;2.40;;
50309;SDS011;36207;51.850;21.698;2023-06-04T06:34:47;6.80;;;2.90;;
50309;SDS011;36207;51.850;21.698;2023-06-04T06:37:12;3.60;;;2.40;;
50309;SDS011;36207;51.850;21.698;2023-06-04T06:39:39;3.50;;;2.20;;
50309;SDS011;36207;51.850;21.698;2023-06-04T06:42:05;5.10;;;2.30;;
50309;SDS011;36207;51.850;21.698;2023-06-04T06:44:30;5.30;;;2.30;;
50309;SDS011;36207;51.850;21.698;2023-06-04T06:46:56;5.30;;;2.50;;
50309;SDS011;36207;51.850;21.698;2023-06-04T06:49:22;5.90;;;2.40;;
50309;SDS011;36207;51.850;21.698;2023-06-04T06:51:48;5.00;;;2.00;;
50309;SDS011;36207;51.850;21.698;2023-06-04T06:54:14;5.10;;;1.70;;
50309;SDS011;36207;51.850;21.698;2023-06-04T06:56:41;1.90;;;1.40;;
50309;SDS011;36207;51.850;21.698;2023-06-04T06:59:07;3.00;;;1.60;;
50309;SDS011;36207;51.850;21.698;2023-06-04T07:01:33;2.90;;;1.70;;
50309;SDS011;36207;51.850;21.698;2023-06-04T07:03:59;4.70;;;1.60;;
50309;SDS011;36207;51.850;21.698;2023-06-04T07:06:25;5.50;;;1.50;;
50309;SDS011;36207;51.850;21.698;2023-06-04T07:08:51;5.30;;;1.80;;
50309;SDS011;36207;51.850;21.698;2023-06-04T07:11:19;8.20;;;1.70;;
50309;SDS011;36207;51.850;21.698;2023-06-04T07:13:45;2.20;;;1.00;;
50309;SDS011;36207;51.850;21.698;2023-06-04T07:16:11;3.10;;;1.10;;
50309;SDS011;36207;51.850;21.698;2023-06-04T07:18:37;1.90;;;1.00;;
50309;SDS011;36207;51.850;21.698;2023-06-04T07:21:03;3.30;;;1.40;;
50309;SDS011;36207;51.850;21.698;2023-06-04T07:23:29;2.10;;;1.30;;
50309;SDS011;36207;51.850;21.698;2023-06-04T07:25:55;3.30;;;1.30;;
50309;SDS011;36207;51.850;21.698;2023-06-04T07:28:22;2.10;;;1.30;;
50309;SDS011;36207;51.850;21.698;2023-06-04T07:30:48;3.50;;;1.40;;
50309;SDS011;36207;51.850;21.698;2023-06-04T07:33:14;2.00;;;1.00;;
50309;SDS011;36207;51.850;21.698;2023-06-04T07:35:40;4.90;;;1.40;;
50309;SDS011;36207;51.850;21.698;2023-06-04T07:38:06;1.70;;;1.10;;
50309;SDS011;36207;51.850;21.698;2023-06-04T07:40:32;1.50;;;0.90;;
50309;SDS011;36207;51.850;21.698;2023-06-04T07:42:58;2.00;;;1.10;;
50309;SDS011;36207;51.850;21.698;2023-06-04T07:45:23;3.00;;;1.10;;
50309;SDS011;36207;51.850;21.698;2023-06-04T07:47:49;3.70;;;1.20;;
50309;SDS011;36207;51.850;21.698;2023-06-04T07:50:15;6.60;;;1.30;;
50309;SDS011;36207;51.850;21.698;2023-06-04T07:52:42;2.80;;;0.90;;
50309;SDS011;36207;51.850;21.698;2023-06-04T07:55:08;3.40;;;1.10;;
50309;SDS011;36207;51.850;21.698;2023-06-04T07:57:35;3.70;;;1.40;;
50309;SDS011;36207;51.850;21.698;2023-06-04T08:00:01;3.70;;;1.30;;
50309;SDS011;36207;51.850;21.698;2023-06-04T08:02:30;3.40;;;1.20;;
50309;SDS011;36207;51.850;21.698;2023-06-04T08:04:56;4.40;;;1.20;;
50309;SDS011;36207;51.850;21.698;2023-06-04T08:07:22;3.30;;;1.10;;
50309;SDS011;36207;51.850;21.698;2023-06-04T08:09:47;1.80;;;1.10;;
50309;SDS011;36207;51.850;21.698;2023-06-04T08:12:15;2.20;;;1.20;;
50309;SDS011;36207;51.850;21.698;2023-06-04T08:14:42;2.90;;;1.30;;
50309;SDS011;36207;51.850;21.698;2023-06-04T08:17:08;5.70;;;1.60;;
50309;SDS011;36207;51.850;21.698;2023-06-04T08:19:34;2.80;;;1.10;;
50309;SDS011;36207;51.850;21.698;2023-06-04T08:22:00;2.80;;;1.10;;
50309;SDS011;36207;51.850;21.698;2023-06-04T08:24:26;2.40;;;1.00;;
50309;SDS011;36207;51.850;21.698;2023-06-04T08:26:52;2.70;;;1.20;;
50309;SDS011;36207;51.850;21.698;2023-06-04T08:29:18;2.10;;;1.10;;
50309;SDS011;36207;51.850;21.698;2023-06-04T08:31:44;2.20;;;1.20;;
50309;SDS011;36207;51.850;21.698;2023-06-04T08:34:10;2.10;;;1.20;;
50309;SDS011;36207;51.850;21.698;2023-06-04T08:36:36;3.00;;;1.40;;
50309;SDS011;36207;51.850;21.698;2023-06-04T08:39:02;2.40;;;1.30;;
50309;SDS011;36207;51.850;21.698;2023-06-04T08:41:29;4.70;;;1.30;;
50309;SDS011;36207;51.850;21.698;2023-06-04T08:44:14;2.20;;;1.20;;
50309;SDS011;36207;51.850;21.698;2023-06-04T08:46:42;1.90;;;1.00;;
50309;SDS011;36207;51.850;21.698;2023-06-04T08:49:09;3.40;;;1.30;;
50309;SDS011;36207;51.850;21.698;2023-06-04T08:51:38;2.80;;;1.20;;
50309;SDS011;36207;51.850;21.698;2023-06-04T08:54:06;2.00;;;1.10;;
50309;SDS011;36207;51.850;21.698;2023-06-04T08:56:36;2.00;;;1.40;;
50309;SDS011;36207;51.850;21.698;2023-06-04T08:59:02;2.50;;;1.30;;
50309;SDS011;36207;51.850;21.698;2023-06-04T09:01:30;1.30;;;1.10;;
50309;SDS011;36207;51.850;21.698;2023-06-04T09:04:01;5.10;;;1.40;;
50309;SDS011;36207;51.850;21.698;2023-06-04T09:06:31;3.10;;;1.40;;
50309;SDS011;36207;51.850;21.698;2023-06-04T09:08:59;1.70;;;1.10;;
50309;SDS011;36207;51.850;21.698;2023-06-04T09:11:31;1.90;;;1.40;;
50309;SDS011;36207;51.850;21.698;2023-06-04T09:14:01;3.40;;;1.30;;
50309;SDS011;36207;51.850;21.698;2023-06-04T09:16:41;2.40;;;1.10;;
50309;SDS011;36207;51.850;21.698;2023-06-04T09:19:08;2.10;;;1.10;;
50309;SDS011;36207;51.850;21.698;2023-06-04T09:21:34;3.30;;;1.20;;
50309;SDS011;36207;51.850;21.698;2023-06-04T09:24:11;4.00;;;1.30;;
50309;SDS011;36207;51.850;21.698;2023-06-04T09:26:37;2.40;;;1.20;;
50309;SDS011;36207;51.850;21.698;2023-06-04T09:29:03;2.40;;;1.10;;
50309;SDS011;36207;51.850;21.698;2023-06-04T09:31:31;5.00;;;1.40;;
50309;SDS011;36207;51.850;21.698;2023-06-04T09:34:02;1.70;;;1.00;;
50309;SDS011;36207;51.850;21.698;2023-06-04T09:36:32;2.80;;;1.40;;
50309;SDS011;36207;51.850;21.698;2023-06-04T09:39:01;3.00;;;0.90;;
50309;SDS011;36207;51.850;21.698;2023-06-04T09:41:29;3.40;;;1.20;;
50309;SDS011;36207;51.850;21.698;2023-06-04T09:44:04;4.10;;;1.60;;
50309;SDS011;36207;51.850;21.698;2023-06-04T09:46:31;1.60;;;1.20;;
50309;SDS011;36207;51.850;21.698;2023-06-04T09:49:01;4.00;;;1.10;;
50309;SDS011;36207;51.850;21.698;2023-06-04T09:51:28;2.10;;;1.30;;
50309;SDS011;36207;51.850;21.698;2023-06-04T09:53:56;2.30;;;1.40;;
50309;SDS011;36207;51.850;21.698;2023-06-04T09:56:24;3.20;;;1.30;;
50309;SDS011;36207;51.850;21.698;2023-06-04T09:58:56;3.60;;;1.10;;
50309;SDS011;36207;51.850;21.698;2023-06-04T10:01:26;7.50;;;1.20;;
50309;SDS011;36207;51.850;21.698;2023-06-04T10:03:54;4.10;;;1.30;;
50309;SDS011;36207;51.850;21.698;2023-06-04T10:06:22;3.60;;;1.40;;
50309;SDS011;36207;51.850;21.698;2023-06-04T10:08:49;3.40;;;1.30;;
50309;SDS011;36207;51.850;21.698;2023-06-04T10:11:17;2.20;;;1.00;;
50309;SDS011;36207;51.850;21.698;2023-06-04T10:14:02;2.30;;;1.00;;
50309;SDS011;36207;51.850;21.698;2023-06-04T10:16:30;2.10;;;1.20;;
50309;SDS011;36207;51.850;21.698;2023-06-04T10:18:58;1.70;;;0.90;;
50309;SDS011;36207;51.850;21.698;2023-06-04T10:21:26;1.70;;;1.10;;
50309;SDS011;36207;51.850;21.698;2023-06-04T10:23:52;2.00;;;1.10;;
50309;SDS011;36207;51.850;21.698;2023-06-04T10:26:18;2.40;;;1.30;;
50309;SDS011;36207;51.850;21.698;2023-06-04T10:28:44;2.40;;;1.30;;
50309;SDS011;36207;51.850;21.698;2023-06-04T10:31:11;2.50;;;0.90;;
50309;SDS011;36207;51.850;21.698;2023-06-04T10:33:38;2.70;;;1.10;;
50309;SDS011;36207;51.850;21.698;2023-06-04T10:36:16;2.10;;;1.00;;
50309;SDS011;36207;51.850;21.698;2023-06-04T10:38:51;1.70;;;1.20;;
50309;SDS011;36207;51.850;21.698;2023-06-04T10:41:19;3.00;;;1.20;;
50309;SDS011;36207;51.850;21.698;2023-06-04T10:43:47;2.20;;;1.10;;
50309;SDS011;36207;51.850;21.698;2023-06-04T10:46:15;1.20;;;1.00;;
50309;SDS011;36207;51.850;21.698;2023-06-04T10:51:13;2.40;;;1.30;;
50309;SDS011;36207;51.850;21.698;2023-06-04T10:53:40;2.30;;;0.90;;
50309;SDS011;36207;51.850;21.698;2023-06-04T10:56:06;4.80;;;1.50;;
50309;SDS011;36207;51.850;21.698;2023-06-04T10:58:35;1.40;;;1.10;;
50309;SDS011;36207;51.850;21.698;2023-06-04T11:01:01;1.30;;;1.20;;
50309;SDS011;36207;51.850;21.698;2023-06-04T11:03:37;1.50;;;1.00;;
50309;SDS011;36207;51.850;21.698;2023-06-04T11:06:14;3.20;;;1.00;;
50309;SDS011;36207;51.850;21.698;2023-06-04T11:08:42;1.50;;;1.00;;
50309;SDS011;36207;51.850;21.698;2023-06-04T11:11:12;6.40;;;1.30;;
50309;SDS011;36207;51.850;21.698;2023-06-04T11:13:39;5.10;;;1.40;;
50309;SDS011;36207;51.850;21.698;2023-06-04T11:16:27;5.10;;;1.30;;
50309;SDS011;36207;51.850;21.698;2023-06-04T11:18:55;1.40;;;1.20;;
50309;SDS011;36207;51.850;21.698;2023-06-04T11:21:22;3.20;;;1.10;;
50309;SDS011;36207;51.850;21.698;2023-06-04T11:23:54;3.10;;;1.10;;
50309;SDS011;36207;51.850;21.698;2023-06-04T11:26:21;2.80;;;1.20;;
50309;SDS011;36207;51.850;21.698;2023-06-04T11:28:50;2.20;;;1.00;;
50309;SDS011;36207;51.850;21.698;2023-06-04T11:31:16;2.70;;;1.10;;
50309;SDS011;36207;51.850;21.698;2023-06-04T11:33:45;1.50;;;1.10;;
50309;SDS011;36207;51.850;21.698;2023-06-04T11:38:55;3.80;;;1.10;;
50309;SDS011;36207;51.850;21.698;2023-06-04T11:41:29;3.00;;;1.70;;
50309;SDS011;36207;51.850;21.698;2023-06-04T11:43:56;1.60;;;1.20;;
50309;SDS011;36207;51.850;21.698;2023-06-04T11:46:23;1.70;;;1.20;;
50309;SDS011;36207;51.850;21.698;2023-06-04T11:48:50;3.10;;;1.30;;
50309;SDS011;36207;51.850;21.698;2023-06-04T11:51:19;2.10;;;1.30;;
50309;SDS011;36207;51.850;21.698;2023-06-04T11:53:46;2.50;;;1.40;;
50309;SDS011;36207;51.850;21.698;2023-06-04T11:56:13;3.30;;;1.10;;
50309;SDS011;36207;51.850;21.698;2023-06-04T11:58:40;1.30;;;1.20;;
50309;SDS011;36207;51.850;21.698;2023-06-04T12:01:07;2.10;;;1.10;;
50309;SDS011;36207;51.850;21.698;2023-06-04T12:03:35;2.30;;;1.10;;
50309;SDS011;36207;51.850;21.698;2023-06-04T12:06:15;2.80;;;1.50;;
50309;SDS011;36207;51.850;21.698;2023-06-04T12:08:46;3.80;;;1.20;;
50309;SDS011;36207;51.850;21.698;2023-06-04T12:14:14;5.40;;;1.20;;
50309;SDS011;36207;51.850;21.698;2023-06-04T12:16:42;3.70;;;1.50;;
50309;SDS011;36207;51.850;21.698;2023-06-04T12:19:08;3.40;;;1.20;;
50309;SDS011;36207;51.850;21.698;2023-06-04T12:21:35;1.50;;;1.20;;
50309;SDS011;36207;51.850;21.698;2023-06-04T12:24:11;2.50;;;1.30;;
50309;SDS011;36207;51.850;21.698;2023-06-04T12:26:39;1.80;;;1.00;;
50309;SDS011;36207;51.850;21.698;2023-06-04T12:29:10;1.80;;;1.30;;
50309;SDS011;36207;51.850;21.698;2023-06-04T12:31:38;3.50;;;1.10;;
50309;SDS011;36207;51.850;21.698;2023-06-04T12:34:08;1.40;;;1.10;;
50309;SDS011;36207;51.850;21.698;2023-06-04T12:36:36;2.70;;;1.40;;
50309;SDS011;36207;51.850;21.698;2023-06-04T12:39:02;2.80;;;1.20;;
50309;SDS011;36207;51.850;21.698;2023-06-04T12:41:29;2.70;;;1.40;;
50309;SDS011;36207;51.850;21.698;2023-06-04T12:43:56;2.00;;;1.20;;
50309;SDS011;36207;51.850;21.698;2023-06-04T12:46:22;2.10;;;1.20;;
50309;SDS011;36207;51.850;21.698;2023-06-04T12:48:52;4.00;;;1.30;;
50309;SDS011;36207;51.850;21.698;2023-06-04T12:51:20;1.10;;;1.00;;
50309;SDS011;36207;51.850;21.698;2023-06-04T12:53:47;1.80;;;1.10;;
50309;SDS011;36207;51.850;21.698;2023-06-04T12:56:13;2.10;;;1.30;;
50309;SDS011;36207;51.850;21.698;2023-06-04T12:58:40;1.40;;;1.30;;
50309;SDS011;36207;51.850;21.698;2023-06-04T13:01:06;1.20;;;1.10;;
50309;SDS011;36207;51.850;21.698;2023-06-04T13:03:32;1.20;;;1.00;;
50309;SDS011;36207;51.850;21.698;2023-06-04T13:06:01;3.10;;;1.30;;
50309;SDS011;36207;51.850;21.698;2023-06-04T13:08:27;1.50;;;1.00;;
50309;SDS011;36207;51.850;21.698;2023-06-04T13:10:53;1.90;;;1.20;;
50309;SDS011;36207;51.850;21.698;2023-06-04T13:13:20;2.90;;;1.30;;
50309;SDS011;36207;51.850;21.698;2023-06-04T13:15:46;1.70;;;1.10;;
50309;SDS011;36207;51.850;21.698;2023-06-04T13:18:13;2.30;;;1.00;;
50309;SDS011;36207;51.850;21.698;2023-06-04T13:20:39;1.50;;;1.10;;
50309;SDS011;36207;51.850;21.698;2023-06-04T13:23:06;5.70;;;1.30;;
50309;SDS011;36207;51.850;21.698;2023-06-04T13:25:33;1.70;;;1.10;;
50309;SDS011;36207;51.850;21.698;2023-06-04T13:28:00;2.10;;;1.20;;
50309;SDS011;36207;51.850;21.698;2023-06-04T13:30:26;2.10;;;1.10;;
50309;SDS011;36207;51.850;21.698;2023-06-04T13:32:52;3.60;;;1.10;;
50309;SDS011;36207;51.850;21.698;2023-06-04T13:35:19;3.50;;;1.40;;
50309;SDS011;36207;51.850;21.698;2023-06-04T13:37:45;2.80;;;1.00;;
50309;SDS011;36207;51.850;21.698;2023-06-04T13:40:12;3.40;;;1.40;;
50309;SDS011;36207;51.850;21.698;2023-06-04T13:42:39;3.90;;;1.20;;
50309;SDS011;36207;51.850;21.698;2023-06-04T13:45:05;4.20;;;1.40;;
50309;SDS011;36207;51.850;21.698;2023-06-04T13:47:32;2.90;;;1.20;;
50309;SDS011;36207;51.850;21.698;2023-06-04T13:49:58;1.90;;;1.30;;
50309;SDS011;36207;51.850;21.698;2023-06-04T13:52:24;4.10;;;1.20;;
50309;SDS011;36207;51.850;21.698;2023-06-04T13:54:50;2.40;;;1.50;;
50309;SDS011;36207;51.850;21.698;2023-06-04T13:57:16;2.50;;;1.40;;
50309;SDS011;36207;51.850;21.698;2023-06-04T13:59:43;2.80;;;1.30;;
50309;SDS011;36207;51.850;21.698;2023-06-04T14:02:09;2.20;;;1.30;;
50309;SDS011;36207;51.850;21.698;2023-06-04T14:04:35;2.20;;;1.40;;
50309;SDS011;36207;51.850;21.698;2023-06-04T14:07:01;3.20;;;1.40;;
50309;SDS011;36207;51.850;21.698;2023-06-04T14:09:27;2.10;;;1.40;;
50309;SDS011;36207;51.850;21.698;2023-06-04T14:11:53;1.90;;;1.00;;
50309;SDS011;36207;51.850;21.698;2023-06-04T14:14:20;2.70;;;1.30;;
50309;SDS011;36207;51.850;21.698;2023-06-04T14:16:49;2.20;;;1.20;;
50309;SDS011;36207;51.850;21.698;2023-06-04T14:19:15;7.70;;;1.10;;
50309;SDS011;36207;51.850;21.698;2023-06-04T14:21:43;2.40;;;1.20;;
50309;SDS011;36207;51.850;21.698;2023-06-04T14:24:09;4.10;;;1.50;;
50309;SDS011;36207;51.850;21.698;2023-06-04T14:26:36;4.40;;;1.10;;
50309;SDS011;36207;51.850;21.698;2023-06-04T14:29:02;3.60;;;1.50;;
50309;SDS011;36207;51.850;21.698;2023-06-04T14:31:29;3.10;;;1.30;;
50309;SDS011;36207;51.850;21.698;2023-06-04T14:33:55;2.40;;;1.10;;
50309;SDS011;36207;51.850;21.698;2023-06-04T14:36:21;4.50;;;1.20;;
50309;SDS011;36207;51.850;21.698;2023-06-04T14:38:47;3.40;;;1.10;;
50309;SDS011;36207;51.850;21.698;2023-06-04T14:41:16;2.10;;;1.20;;
50309;SDS011;36207;51.850;21.698;2023-06-04T14:43:42;3.80;;;1.30;;
50309;SDS011;36207;51.850;21.698;2023-06-04T14:46:08;6.60;;;1.30;;
50309;SDS011;36207;51.850;21.698;2023-06-04T14:48:34;1.30;;;1.00;;